sensor_id;sensor_type;location;lat;lon;timestamp;pressure;altitude;pressure_sealevel;temperature;humidity
62025;BME280;47978;49.118;12.146;2023-03-02T00:02:30;97669.56;;;2.27;75.25
62025;BME280;47978;49.118;12.146;2023-03-02T00:06:31;97675.69;;;2.34;75.11
62025;BME280;47978;49.118;12.146;2023-03-02T00:10:35;97677.03;;;2.32;75.03
62025;BME280;47978;49.118;12.146;2023-03-02T00:14:36;97659.47;;;2.28;74.70
62025;BME280;47978;49.118;12.146;2023-03-02T00:18:39;97657.34;;;2.30;74.86
62025;BME280;47978;49.118;12.146;2023-03-02T00:22:41;97662.72;;;2.24;75.21
62025;BME280;47978;49.118;12.146;2023-03-02T00:26:42;97661.47;;;2.32;74.83
62025;BME280;47978;49.118;12.146;2023-03-02T00:30:44;97648.91;;;2.31;75.14
62025;BME280;47978;49.118;12.146;2023-03-02T00:34:46;97650.47;;;2.27;74.94
62025;BME280;47978;49.118;12.146;2023-03-02T00:38:48;97662.56;;;2.31;74.85
62025;BME280;47978;49.118;12.146;2023-03-02T00:42:49;97647.19;;;2.25;74.88
62025;BME280;47978;49.118;12.146;2023-03-02T00:46:51;97649.66;;;2.27;74.87
62025;BME280;47978;49.118;12.146;2023-03-02T00:50:53;97645.78;;;2.22;75.03
62025;BME280;47978;49.118;12.146;2023-03-02T00:54:55;97644.69;;;2.23;74.93
62025;BME280;47978;49.118;12.146;2023-03-02T00:58:56;97641.78;;;2.30;74.68
62025;BME280;47978;49.118;12.146;2023-03-02T01:02:57;97636.19;;;2.20;75.17
62025;BME280;47978;49.118;12.146;2023-03-02T01:07:01;97622.38;;;2.27;74.68
62025;BME280;47978;49.118;12.146;2023-03-02T01:11:10;97623.53;;;2.31;74.61
62025;BME280;47978;49.118;12.146;2023-03-02T01:15:12;97616.81;;;2.21;74.92
62025;BME280;47978;49.118;12.146;2023-03-02T01:19:13;97612.28;;;2.27;74.96
62025;BME280;47978;49.118;12.146;2023-03-02T01:23:16;97606.81;;;2.27;74.82
62025;BME280;47978;49.118;12.146;2023-03-02T01:27:18;97599.56;;;2.16;75.18
62025;BME280;47978;49.118;12.146;2023-03-02T01:31:19;97597.50;;;2.23;75.04
62025;BME280;47978;49.118;12.146;2023-03-02T01:35:21;97595.41;;;2.30;74.84
62025;BME280;47978;49.118;12.146;2023-03-02T01:39:24;97595.78;;;2.17;75.08
62025;BME280;47978;49.118;12.146;2023-03-02T01:43:25;97589.72;;;2.15;75.22
62025;BME280;47978;49.118;12.146;2023-03-02T01:47:27;97578.59;;;2.16;75.21
62025;BME280;47978;49.118;12.146;2023-03-02T01:51:32;97583.69;;;2.13;75.57
62025;BME280;47978;49.118;12.146;2023-03-02T01:55:36;97588.75;;;2.04;75.31
62025;BME280;47978;49.118;12.146;2023-03-02T01:59:38;97576.50;;;2.07;75.58
62025;BME280;47978;49.118;12.146;2023-03-02T02:03:40;97584.28;;;2.15;75.46
62025;BME280;47978;49.118;12.146;2023-03-02T02:07:43;97574.78;;;2.00;75.74
62025;BME280;47978;49.118;12.146;2023-03-02T02:11:46;97570.47;;;2.05;75.55
62025;BME280;47978;49.118;12.146;2023-03-02T02:15:47;97568.75;;;1.98;76.18
62025;BME280;47978;49.118;12.146;2023-03-02T02:19:53;97569.84;;;1.97;76.15
62025;BME280;47978;49.118;12.146;2023-03-02T02:23:57;97577.34;;;1.90;76.25
62025;BME280;47978;49.118;12.146;2023-03-02T02:28:04;97573.66;;;1.96;76.05
62025;BME280;47978;49.118;12.146;2023-03-02T02:32:09;97570.00;;;1.91;76.11
62025;BME280;47978;49.118;12.146;2023-03-02T02:36:13;97558.59;;;1.94;76.28
62025;BME280;47978;49.118;12.146;2023-03-02T02:40:18;97558.75;;;1.87;76.26
62025;BME280;47978;49.118;12.146;2023-03-02T02:44:22;97563.72;;;1.90;76.20
62025;BME280;47978;49.118;12.146;2023-03-02T02:48:24;97567.84;;;1.93;76.20
62025;BME280;47978;49.118;12.146;2023-03-02T02:52:26;97563.38;;;1.87;76.02
62025;BME280;47978;49.118;12.146;2023-03-02T02:56:29;97562.75;;;1.96;75.91
62025;BME280;47978;49.118;12.146;2023-03-02T03:00:33;97568.84;;;1.87;76.26
62025;BME280;47978;49.118;12.146;2023-03-02T03:04:35;97567.69;;;1.83;76.08
62025;BME280;47978;49.118;12.146;2023-03-02T03:08:50;97564.97;;;1.83;76.28
62025;BME280;47978;49.118;12.146;2023-03-02T03:12:52;97566.84;;;1.82;76.38
62025;BME280;47978;49.118;12.146;2023-03-02T03:16:54;97566.59;;;1.84;76.28
62025;BME280;47978;49.118;12.146;2023-03-02T03:20:56;97559.59;;;1.71;76.27
62025;BME280;47978;49.118;12.146;2023-03-02T03:24:58;97567.69;;;1.49;77.13
62025;BME280;47978;49.118;12.146;2023-03-02T03:28:59;97559.91;;;1.57;77.41
62025;BME280;47978;49.118;12.146;2023-03-02T03:33:02;97563.69;;;1.56;77.30
62025;BME280;47978;49.118;12.146;2023-03-02T03:37:04;97555.69;;;1.50;77.52
62025;BME280;47978;49.118;12.146;2023-03-02T03:41:05;97554.34;;;1.35;77.72
62025;BME280;47978;49.118;12.146;2023-03-02T03:45:07;97561.44;;;1.37;77.97
62025;BME280;47978;49.118;12.146;2023-03-02T03:49:10;97556.34;;;1.40;77.37
62025;BME280;47978;49.118;12.146;2023-03-02T03:53:11;97552.91;;;1.16;78.37
62025;BME280;47978;49.118;12.146;2023-03-02T03:57:12;97548.88;;;1.19;78.29
62025;BME280;47978;49.118;12.146;2023-03-02T04:01:14;97547.63;;;1.09;78.15
62025;BME280;47978;49.118;12.146;2023-03-02T04:05:17;97554.44;;;0.95;78.42
62025;BME280;47978;49.118;12.146;2023-03-02T04:09:18;97547.63;;;0.81;78.64
62025;BME280;47978;49.118;12.146;2023-03-02T04:13:20;97556.88;;;0.68;79.02
62025;BME280;47978;49.118;12.146;2023-03-02T04:17:21;97551.22;;;0.70;79.46
62025;BME280;47978;49.118;12.146;2023-03-02T04:21:24;97541.31;;;0.92;79.11
62025;BME280;47978;49.118;12.146;2023-03-02T04:25:26;97546.09;;;1.02;79.27
62025;BME280;47978;49.118;12.146;2023-03-02T04:29:28;97550.41;;;0.98;78.91
62025;BME280;47978;49.118;12.146;2023-03-02T04:33:30;97540.66;;;1.02;78.72
62025;BME280;47978;49.118;12.146;2023-03-02T04:37:32;97544.19;;;1.14;78.14
62025;BME280;47978;49.118;12.146;2023-03-02T04:41:34;97549.19;;;1.22;78.34
62025;BME280;47978;49.118;12.146;2023-03-02T04:45:36;97548.88;;;1.19;78.40
62025;BME280;47978;49.118;12.146;2023-03-02T04:49:37;97548.22;;;1.11;78.21
62025;BME280;47978;49.118;12.146;2023-03-02T04:53:40;97532.31;;;1.20;78.39
62025;BME280;47978;49.118;12.146;2023-03-02T04:57:41;97528.00;;;1.24;77.98
62025;BME280;47978;49.118;12.146;2023-03-02T05:01:43;97547.06;;;1.24;78.04
62025;BME280;47978;49.118;12.146;2023-03-02T05:05:44;97539.66;;;1.20;78.07
62025;BME280;47978;49.118;12.146;2023-03-02T05:09:47;97538.47;;;1.16;78.12
62025;BME280;47978;49.118;12.146;2023-03-02T05:13:48;97536.66;;;1.21;77.57
62025;BME280;47978;49.118;12.146;2023-03-02T05:17:50;97537.69;;;1.32;77.59
62025;BME280;47978;49.118;12.146;2023-03-02T05:21:51;97536.56;;;1.16;78.25
62025;BME280;47978;49.118;12.146;2023-03-02T05:25:54;97536.75;;;1.26;77.25
62025;BME280;47978;49.118;12.146;2023-03-02T05:29:56;97539.41;;;1.21;77.87
62025;BME280;47978;49.118;12.146;2023-03-02T05:33:57;97539.00;;;1.29;77.50
62025;BME280;47978;49.118;12.146;2023-03-02T05:37:58;97533.22;;;1.26;77.48
62025;BME280;47978;49.118;12.146;2023-03-02T05:42:01;97538.81;;;1.19;77.26
62025;BME280;47978;49.118;12.146;2023-03-02T05:46:03;97542.53;;;1.30;77.32
62025;BME280;47978;49.118;12.146;2023-03-02T05:50:04;97550.88;;;1.23;77.47
62025;BME280;47978;49.118;12.146;2023-03-02T05:54:06;97548.56;;;1.32;77.12
62025;BME280;47978;49.118;12.146;2023-03-02T05:58:11;97556.16;;;1.30;77.36
62025;BME280;47978;49.118;12.146;2023-03-02T06:02:13;97559.56;;;1.37;76.65
62025;BME280;47978;49.118;12.146;2023-03-02T06:06:14;97562.03;;;1.39;76.59
62025;BME280;47978;49.118;12.146;2023-03-02T06:10:15;97559.56;;;1.37;76.68
62025;BME280;47978;49.118;12.146;2023-03-02T06:14:18;97572.03;;;1.50;76.15
62025;BME280;47978;49.118;12.146;2023-03-02T06:18:20;97572.72;;;1.57;76.05
62025;BME280;47978;49.118;12.146;2023-03-02T06:22:21;97572.72;;;1.57;75.96
62025;BME280;47978;49.118;12.146;2023-03-02T06:26:22;97575.44;;;1.57;75.73
62025;BME280;47978;49.118;12.146;2023-03-02T06:30:25;97581.13;;;1.55;75.82
62025;BME280;47978;49.118;12.146;2023-03-02T06:34:26;97582.94;;;1.50;76.21
62025;BME280;47978;49.118;12.146;2023-03-02T06:38:28;97583.94;;;1.61;76.14
62025;BME280;47978;49.118;12.146;2023-03-02T06:42:29;97579.75;;;1.70;75.63
62025;BME280;47978;49.118;12.146;2023-03-02T06:46:32;97578.50;;;1.77;75.23
62025;BME280;47978;49.118;12.146;2023-03-02T06:50:34;97575.38;;;1.69;75.38
62025;BME280;47978;49.118;12.146;2023-03-02T06:54:35;97580.97;;;1.79;75.04
62025;BME280;47978;49.118;12.146;2023-03-02T06:58:36;97572.56;;;1.97;74.85
62025;BME280;47978;49.118;12.146;2023-03-02T07:02:39;97581.31;;;1.99;74.39
62025;BME280;47978;49.118;12.146;2023-03-02T07:06:41;97574.19;;;2.15;73.86
62025;BME280;47978;49.118;12.146;2023-03-02T07:10:42;97576.16;;;2.37;73.00
62025;BME280;47978;49.118;12.146;2023-03-02T07:14:43;97570.00;;;2.46;72.46
62025;BME280;47978;49.118;12.146;2023-03-02T07:18:46;97575.25;;;2.53;72.24
62025;BME280;47978;49.118;12.146;2023-03-02T07:22:48;97563.47;;;2.69;72.15
62025;BME280;47978;49.118;12.146;2023-03-02T07:26:49;97571.50;;;2.76;71.65
62025;BME280;47978;49.118;12.146;2023-03-02T07:30:50;97569.56;;;2.99;70.92
62025;BME280;47978;49.118;12.146;2023-03-02T07:34:53;97567.19;;;3.07;70.63
62025;BME280;47978;49.118;12.146;2023-03-02T07:38:54;97577.47;;;3.22;69.99
62025;BME280;47978;49.118;12.146;2023-03-02T07:42:56;97571.97;;;3.17;69.96
62025;BME280;47978;49.118;12.146;2023-03-02T07:46:57;97569.38;;;3.32;69.73
62025;BME280;47978;49.118;12.146;2023-03-02T07:51:00;97574.38;;;3.41;69.41
62025;BME280;47978;49.118;12.146;2023-03-02T07:55:03;97569.78;;;3.46;69.42
62025;BME280;47978;49.118;12.146;2023-03-02T07:59:04;97574.97;;;3.75;68.34
62025;BME280;47978;49.118;12.146;2023-03-02T08:03:05;97580.63;;;3.95;67.80
62025;BME280;47978;49.118;12.146;2023-03-02T08:07:08;97573.13;;;4.13;67.47
62025;BME280;47978;49.118;12.146;2023-03-02T08:11:10;97579.53;;;4.34;66.55
62025;BME280;47978;49.118;12.146;2023-03-02T08:15:12;97572.53;;;4.53;65.56
62025;BME280;47978;49.118;12.146;2023-03-02T08:19:14;97570.34;;;4.50;65.04
62025;BME280;47978;49.118;12.146;2023-03-02T08:23:16;97575.97;;;4.86;64.37
62025;BME280;47978;49.118;12.146;2023-03-02T08:27:18;97575.47;;;4.94;64.29
62025;BME280;47978;49.118;12.146;2023-03-02T08:31:19;97577.75;;;5.12;64.03
62025;BME280;47978;49.118;12.146;2023-03-02T08:35:21;97570.38;;;5.28;63.38
62025;BME280;47978;49.118;12.146;2023-03-02T08:39:23;97567.19;;;5.72;62.46
62025;BME280;47978;49.118;12.146;2023-03-02T08:43:25;97570.50;;;6.00;61.24
62025;BME280;47978;49.118;12.146;2023-03-02T08:47:26;97575.72;;;6.27;60.48
62025;BME280;47978;49.118;12.146;2023-03-02T08:51:28;97576.50;;;6.58;59.89
62025;BME280;47978;49.118;12.146;2023-03-02T08:55:30;97561.88;;;6.83;58.53
62025;BME280;47978;49.118;12.146;2023-03-02T08:59:34;97562.38;;;6.90;58.18
62025;BME280;47978;49.118;12.146;2023-03-02T09:03:36;97555.47;;;6.98;57.89
62025;BME280;47978;49.118;12.146;2023-03-02T09:07:37;97560.97;;;6.98;57.72
62025;BME280;47978;49.118;12.146;2023-03-02T09:11:40;97562.94;;;6.87;58.30
62025;BME280;47978;49.118;12.146;2023-03-02T09:15:41;97553.75;;;7.12;57.77
62025;BME280;47978;49.118;12.146;2023-03-02T09:19:43;97561.69;;;7.24;57.98
62025;BME280;47978;49.118;12.146;2023-03-02T09:23:45;97551.03;;;7.57;56.83
62025;BME280;47978;49.118;12.146;2023-03-02T09:27:47;97557.06;;;7.59;56.72
62025;BME280;47978;49.118;12.146;2023-03-02T09:31:49;97546.81;;;7.70;56.73
62025;BME280;47978;49.118;12.146;2023-03-02T09:35:51;97543.31;;;7.59;56.37
62025;BME280;47978;49.118;12.146;2023-03-02T09:39:52;97553.13;;;7.70;55.96
62025;BME280;47978;49.118;12.146;2023-03-02T09:43:56;97551.41;;;7.79;55.96
62025;BME280;47978;49.118;12.146;2023-03-02T09:48:09;97555.88;;;7.75;56.41
62025;BME280;47978;49.118;12.146;2023-03-02T09:52:15;97566.66;;;8.06;55.80
62025;BME280;47978;49.118;12.146;2023-03-02T09:56:21;97560.41;;;8.24;55.27
62025;BME280;47978;49.118;12.146;2023-03-02T10:00:26;97552.34;;;8.33;55.15
62025;BME280;47978;49.118;12.146;2023-03-02T10:04:28;97565.47;;;8.46;54.23
62025;BME280;47978;49.118;12.146;2023-03-02T10:08:33;97549.50;;;8.48;53.77
62025;BME280;47978;49.118;12.146;2023-03-02T10:12:42;97556.75;;;8.34;54.73
62025;BME280;47978;49.118;12.146;2023-03-02T10:16:48;97551.38;;;8.19;55.68
62025;BME280;47978;49.118;12.146;2023-03-02T10:20:52;97551.91;;;8.21;55.54
62025;BME280;47978;49.118;12.146;2023-03-02T10:24:56;97545.41;;;8.11;55.51
62025;BME280;47978;49.118;12.146;2023-03-02T10:33:23;97549.53;;;8.09;55.88
62025;BME280;47978;49.118;12.146;2023-03-02T10:37:27;97546.28;;;8.02;56.08
62025;BME280;47978;49.118;12.146;2023-03-02T10:41:29;97533.78;;;8.15;55.59
62025;BME280;47978;49.118;12.146;2023-03-02T10:45:32;97539.00;;;8.16;56.05
62025;BME280;47978;49.118;12.146;2023-03-02T10:49:35;97538.28;;;8.34;55.78
62025;BME280;47978;49.118;12.146;2023-03-02T10:53:37;97528.63;;;8.37;55.56
62025;BME280;47978;49.118;12.146;2023-03-02T10:57:39;97536.63;;;8.39;55.47
62025;BME280;47978;49.118;12.146;2023-03-02T11:01:40;97529.53;;;8.27;55.83
62025;BME280;47978;49.118;12.146;2023-03-02T11:05:43;97522.56;;;8.40;55.56
62025;BME280;47978;49.118;12.146;2023-03-02T11:09:55;97528.38;;;8.33;55.73
62025;BME280;47978;49.118;12.146;2023-03-02T11:14:06;97519.53;;;8.37;55.33
62025;BME280;47978;49.118;12.146;2023-03-02T11:18:10;97525.91;;;8.32;55.51
62025;BME280;47978;49.118;12.146;2023-03-02T11:22:20;97517.88;;;8.36;55.46
62025;BME280;47978;49.118;12.146;2023-03-02T11:26:25;97518.31;;;8.48;55.51
62025;BME280;47978;49.118;12.146;2023-03-02T11:30:26;97521.63;;;8.50;55.54
62025;BME280;47978;49.118;12.146;2023-03-02T11:34:31;97499.94;;;8.67;54.88
62025;BME280;47978;49.118;12.146;2023-03-02T11:38:39;97503.13;;;8.80;55.30
62025;BME280;47978;49.118;12.146;2023-03-02T11:42:43;97501.22;;;8.75;55.16
62025;BME280;47978;49.118;12.146;2023-03-02T11:46:46;97498.22;;;8.95;54.84
62025;BME280;47978;49.118;12.146;2023-03-02T11:50:52;97490.25;;;9.13;55.06
62025;BME280;47978;49.118;12.146;2023-03-02T11:54:56;97486.41;;;9.14;54.68
62025;BME280;47978;49.118;12.146;2023-03-02T11:59:00;97483.78;;;9.22;54.45
62025;BME280;47978;49.118;12.146;2023-03-02T12:03:03;97485.88;;;9.31;54.28
62025;BME280;47978;49.118;12.146;2023-03-02T12:07:15;97469.34;;;9.31;54.14
62025;BME280;47978;49.118;12.146;2023-03-02T12:11:28;97477.06;;;9.48;53.85
62025;BME280;47978;49.118;12.146;2023-03-02T12:15:39;97475.28;;;9.57;53.75
62025;BME280;47978;49.118;12.146;2023-03-02T12:19:41;97470.91;;;9.69;52.92
62025;BME280;47978;49.118;12.146;2023-03-02T12:23:53;97469.75;;;9.57;53.84
62025;BME280;47978;49.118;12.146;2023-03-02T12:27:57;97465.47;;;9.64;53.97
62025;BME280;47978;49.118;12.146;2023-03-02T12:32:08;97467.72;;;9.95;53.09
62025;BME280;47978;49.118;12.146;2023-03-02T12:36:11;97453.97;;;10.09;52.49
62025;BME280;47978;49.118;12.146;2023-03-02T12:40:24;97454.38;;;10.02;52.92
62025;BME280;47978;49.118;12.146;2023-03-02T12:44:32;97450.50;;;10.17;52.73
62025;BME280;47978;49.118;12.146;2023-03-02T12:48:39;97433.81;;;10.08;52.71
62025;BME280;47978;49.118;12.146;2023-03-02T12:52:42;97436.59;;;10.22;52.79
62025;BME280;47978;49.118;12.146;2023-03-02T12:56:44;97434.94;;;10.21;52.72
62025;BME280;47978;49.118;12.146;2023-03-02T13:00:51;97433.25;;;10.39;52.43
62025;BME280;47978;49.118;12.146;2023-03-02T13:04:53;97424.47;;;10.51;52.15
62025;BME280;47978;49.118;12.146;2023-03-02T13:08:56;97425.25;;;10.51;52.07
62025;BME280;47978;49.118;12.146;2023-03-02T13:12:58;97422.69;;;10.55;51.87
62025;BME280;47978;49.118;12.146;2023-03-02T13:17:01;97415.94;;;10.61;52.87
62025;BME280;47978;49.118;12.146;2023-03-02T13:21:03;97416.81;;;10.84;52.16
62025;BME280;47978;49.118;12.146;2023-03-02T13:25:05;97413.66;;;10.91;51.35
62025;BME280;47978;49.118;12.146;2023-03-02T13:29:16;97406.84;;;11.11;51.34
62025;BME280;47978;49.118;12.146;2023-03-02T13:33:20;97399.94;;;11.22;50.22
62025;BME280;47978;49.118;12.146;2023-03-02T13:37:24;97397.47;;;11.20;50.94
62025;BME280;47978;49.118;12.146;2023-03-02T13:41:30;97391.78;;;11.03;50.98
62025;BME280;47978;49.118;12.146;2023-03-02T13:45:32;97395.78;;;11.11;50.93
62025;BME280;47978;49.118;12.146;2023-03-02T13:49:35;97383.59;;;10.98;51.33
62025;BME280;47978;49.118;12.146;2023-03-02T13:53:43;97379.28;;;11.06;50.90
62025;BME280;47978;49.118;12.146;2023-03-02T13:57:45;97386.53;;;11.15;50.90
62025;BME280;47978;49.118;12.146;2023-03-02T14:01:47;97389.06;;;11.25;51.16
62025;BME280;47978;49.118;12.146;2023-03-02T14:05:52;97384.75;;;11.33;50.78
62025;BME280;47978;49.118;12.146;2023-03-02T14:09:53;97385.63;;;11.42;50.19
62025;BME280;47978;49.118;12.146;2023-03-02T14:13:57;97383.47;;;11.39;49.95
62025;BME280;47978;49.118;12.146;2023-03-02T14:17:59;97378.56;;;11.36;49.77
62025;BME280;47978;49.118;12.146;2023-03-02T14:22:02;97382.19;;;11.23;50.56
62025;BME280;47978;49.118;12.146;2023-03-02T14:26:03;97378.44;;;11.19;51.09
62025;BME280;47978;49.118;12.146;2023-03-02T14:30:11;97374.00;;;11.18;50.44
62025;BME280;47978;49.118;12.146;2023-03-02T14:34:14;97364.34;;;11.29;51.22
62025;BME280;47978;49.118;12.146;2023-03-02T14:38:17;97363.41;;;11.34;50.57
62025;BME280;47978;49.118;12.146;2023-03-02T14:42:19;97359.75;;;11.47;50.67
62025;BME280;47978;49.118;12.146;2023-03-02T14:46:21;97357.47;;;11.49;50.82
62025;BME280;47978;49.118;12.146;2023-03-02T14:50:22;97351.88;;;11.40;50.98
62025;BME280;47978;49.118;12.146;2023-03-02T14:54:25;97352.06;;;11.44;50.53
62025;BME280;47978;49.118;12.146;2023-03-02T14:58:28;97354.78;;;11.35;50.56
62025;BME280;47978;49.118;12.146;2023-03-02T15:02:30;97350.88;;;11.36;51.49
62025;BME280;47978;49.118;12.146;2023-03-02T15:06:34;97351.31;;;11.30;51.29
62025;BME280;47978;49.118;12.146;2023-03-02T15:10:38;97349.88;;;11.32;51.40
62025;BME280;47978;49.118;12.146;2023-03-02T15:14:40;97355.56;;;11.27;51.46
62025;BME280;47978;49.118;12.146;2023-03-02T15:18:41;97349.38;;;11.08;51.58
62025;BME280;47978;49.118;12.146;2023-03-02T15:22:43;97355.19;;;11.06;51.31
62025;BME280;47978;49.118;12.146;2023-03-02T15:26:45;97353.38;;;11.01;51.57
62025;BME280;47978;49.118;12.146;2023-03-02T15:30:47;97351.53;;;10.97;51.84
62025;BME280;47978;49.118;12.146;2023-03-02T15:34:48;97349.72;;;10.92;51.84
62025;BME280;47978;49.118;12.146;2023-03-02T15:38:49;97357.19;;;10.92;51.57
62025;BME280;47978;49.118;12.146;2023-03-02T15:42:52;97357.31;;;10.87;52.26
62025;BME280;47978;49.118;12.146;2023-03-02T15:46:54;97363.69;;;10.73;52.30
62025;BME280;47978;49.118;12.146;2023-03-02T15:50:56;97362.28;;;10.62;52.83
62025;BME280;47978;49.118;12.146;2023-03-02T15:54:57;97365.34;;;10.47;52.93
62025;BME280;47978;49.118;12.146;2023-03-02T15:59:00;97369.38;;;10.41;53.23
62025;BME280;47978;49.118;12.146;2023-03-02T16:03:01;97368.34;;;10.37;53.29
62025;BME280;47978;49.118;12.146;2023-03-02T16:07:03;97374.97;;;10.22;53.85
62025;BME280;47978;49.118;12.146;2023-03-02T16:11:05;97382.75;;;10.06;53.94
62025;BME280;47978;49.118;12.146;2023-03-02T16:15:09;97377.50;;;10.04;54.22
62025;BME280;47978;49.118;12.146;2023-03-02T16:19:11;97375.75;;;9.95;55.03
62025;BME280;47978;49.118;12.146;2023-03-02T16:23:12;97388.94;;;9.84;54.85
62025;BME280;47978;49.118;12.146;2023-03-02T16:27:14;97385.59;;;9.54;55.70
62025;BME280;47978;49.118;12.146;2023-03-02T16:31:17;97390.19;;;9.45;57.21
62025;BME280;47978;49.118;12.146;2023-03-02T16:35:19;97394.97;;;9.20;60.02
62025;BME280;47978;49.118;12.146;2023-03-02T16:39:20;97397.88;;;8.72;62.54
62025;BME280;47978;49.118;12.146;2023-03-02T16:43:22;97402.38;;;8.44;63.87
62025;BME280;47978;49.118;12.146;2023-03-02T16:47:24;97405.75;;;8.12;64.77
62025;BME280;47978;49.118;12.146;2023-03-02T16:51:26;97410.91;;;7.95;65.48
62025;BME280;47978;49.118;12.146;2023-03-02T16:55:27;97421.16;;;7.60;66.28
62025;BME280;47978;49.118;12.146;2023-03-02T16:59:28;97422.94;;;7.40;66.68
62025;BME280;47978;49.118;12.146;2023-03-02T17:03:31;97415.16;;;7.13;67.87
62025;BME280;47978;49.118;12.146;2023-03-02T17:07:32;97422.75;;;6.87;68.00
62025;BME280;47978;49.118;12.146;2023-03-02T17:11:34;97434.69;;;6.67;68.56
62025;BME280;47978;49.118;12.146;2023-03-02T17:15:35;97424.06;;;6.40;69.90
62025;BME280;47978;49.118;12.146;2023-03-02T17:19:38;97437.31;;;6.23;69.90
62025;BME280;47978;49.118;12.146;2023-03-02T17:23:39;97433.28;;;5.95;71.25
62025;BME280;47978;49.118;12.146;2023-03-02T17:27:41;97445.38;;;5.73;71.69
62025;BME280;47978;49.118;12.146;2023-03-02T17:31:42;97450.84;;;5.63;71.93
62025;BME280;47978;49.118;12.146;2023-03-02T17:35:45;97447.03;;;5.38;72.73
62025;BME280;47978;49.118;12.146;2023-03-02T17:39:47;97449.47;;;5.40;72.33
62025;BME280;47978;49.118;12.146;2023-03-02T17:43:48;97458.78;;;5.13;73.08
62025;BME280;47978;49.118;12.146;2023-03-02T17:47:50;97454.38;;;4.97;73.68
62025;BME280;47978;49.118;12.146;2023-03-02T17:51:54;97454.38;;;4.87;74.14
62025;BME280;47978;49.118;12.146;2023-03-02T17:55:55;97459.25;;;4.74;74.07
62025;BME280;47978;49.118;12.146;2023-03-02T17:59:56;97455.13;;;4.67;74.35
62025;BME280;47978;49.118;12.146;2023-03-02T18:03:58;97461.97;;;4.64;73.58
62025;BME280;47978;49.118;12.146;2023-03-02T18:08:00;97454.53;;;4.55;74.43
62025;BME280;47978;49.118;12.146;2023-03-02T18:12:02;97458.06;;;4.45;74.81
62025;BME280;47978;49.118;12.146;2023-03-02T18:16:04;97470.56;;;4.25;75.32
62025;BME280;47978;49.118;12.146;2023-03-02T18:20:06;97464.53;;;4.28;75.64
62025;BME280;47978;49.118;12.146;2023-03-02T18:24:09;97463.91;;;4.11;76.00
62025;BME280;47978;49.118;12.146;2023-03-02T18:28:10;97465.75;;;4.00;75.82
62025;BME280;47978;49.118;12.146;2023-03-02T18:32:12;97468.72;;;3.94;76.26
62025;BME280;47978;49.118;12.146;2023-03-02T18:36:13;97477.19;;;3.87;76.70
62025;BME280;47978;49.118;12.146;2023-03-02T18:40:16;97476.56;;;3.80;77.37
62025;BME280;47978;49.118;12.146;2023-03-02T18:44:18;97480.06;;;3.70;78.02
62025;BME280;47978;49.118;12.146;2023-03-02T18:48:19;97485.22;;;3.67;77.59
62025;BME280;47978;49.118;12.146;2023-03-02T18:52:21;97482.94;;;3.53;77.88
62025;BME280;47978;49.118;12.146;2023-03-02T18:56:23;97484.91;;;3.63;77.61
62025;BME280;47978;49.118;12.146;2023-03-02T19:00:25;97477.50;;;3.58;77.90
62025;BME280;47978;49.118;12.146;2023-03-02T19:04:28;97490.38;;;3.63;78.62
62025;BME280;47978;49.118;12.146;2023-03-02T19:08:29;97488.59;;;3.47;78.71
62025;BME280;47978;49.118;12.146;2023-03-02T19:12:32;97480.59;;;3.35;79.04
62025;BME280;47978;49.118;12.146;2023-03-02T19:16:34;97496.56;;;3.21;79.04
62025;BME280;47978;49.118;12.146;2023-03-02T19:20:35;97500.97;;;3.22;79.02
62025;BME280;47978;49.118;12.146;2023-03-02T19:24:36;97509.38;;;3.15;79.29
62025;BME280;47978;49.118;12.146;2023-03-02T19:28:39;97506.91;;;3.14;79.24
62025;BME280;47978;49.118;12.146;2023-03-02T19:32:41;97513.41;;;3.08;79.32
62025;BME280;47978;49.118;12.146;2023-03-02T19:36:42;97512.72;;;2.96;79.65
62025;BME280;47978;49.118;12.146;2023-03-02T19:40:43;97506.13;;;2.91;79.80
62025;BME280;47978;49.118;12.146;2023-03-02T19:44:46;97522.66;;;2.80;80.53
62025;BME280;47978;49.118;12.146;2023-03-02T19:48:47;97520.22;;;2.83;80.23
62025;BME280;47978;49.118;12.146;2023-03-02T19:52:49;97521.38;;;2.65;80.66
62025;BME280;47978;49.118;12.146;2023-03-02T19:56:51;97530.41;;;2.66;80.58
62025;BME280;47978;49.118;12.146;2023-03-02T20:00:53;97530.09;;;2.62;80.25
62025;BME280;47978;49.118;12.146;2023-03-02T20:04:55;97536.31;;;2.58;79.98
62025;BME280;47978;49.118;12.146;2023-03-02T20:08:57;97534.94;;;2.38;80.35
62025;BME280;47978;49.118;12.146;2023-03-02T20:12:58;97542.19;;;2.50;79.92
62025;BME280;47978;49.118;12.146;2023-03-02T20:17:01;97533.69;;;2.46;80.30
62025;BME280;47978;49.118;12.146;2023-03-02T20:21:03;97535.97;;;2.32;79.97
62025;BME280;47978;49.118;12.146;2023-03-02T20:25:05;97548.28;;;2.35;79.95
62025;BME280;47978;49.118;12.146;2023-03-02T20:29:06;97552.19;;;2.22;79.91
62025;BME280;47978;49.118;12.146;2023-03-02T20:33:10;97544.69;;;2.12;80.05
62025;BME280;47978;49.118;12.146;2023-03-02T20:37:12;97550.06;;;2.07;80.79
62025;BME280;47978;49.118;12.146;2023-03-02T20:41:14;97548.72;;;2.10;80.21
62025;BME280;47978;49.118;12.146;2023-03-02T20:45:15;97550.75;;;1.97;80.19
62025;BME280;47978;49.118;12.146;2023-03-02T20:49:19;97543.47;;;2.03;80.15
62025;BME280;47978;49.118;12.146;2023-03-02T20:53:20;97547.50;;;2.00;80.26
62025;BME280;47978;49.118;12.146;2023-03-02T20:57:22;97557.69;;;1.71;80.97
62025;BME280;47978;49.118;12.146;2023-03-02T21:01:24;97561.88;;;1.62;81.39
62025;BME280;47978;49.118;12.146;2023-03-02T21:05:27;97568.19;;;1.63;80.68
62025;BME280;47978;49.118;12.146;2023-03-02T21:09:29;97560.34;;;1.66;80.87
62025;BME280;47978;49.118;12.146;2023-03-02T21:13:30;97556.72;;;1.77;80.89
62025;BME280;47978;49.118;12.146;2023-03-02T21:17:32;97564.56;;;1.74;80.52
62025;BME280;47978;49.118;12.146;2023-03-02T21:21:35;97559.16;;;1.62;80.71
62025;BME280;47978;49.118;12.146;2023-03-02T21:25:42;97567.91;;;1.47;80.68